createdAt,value
2022-11-05T00:00:01.509Z,260
2022-11-05T00:00:31.879Z,290
2022-11-05T00:01:04.793Z,260
2022-11-05T00:01:35.490Z,228
2022-11-05T00:02:08.721Z,267
2022-11-05T00:02:35.524Z,258
2022-11-05T00:02:55.961Z,278
2022-11-05T00:03:28.041Z,277
2022-11-05T00:03:59.913Z,239
2022-11-05T00:04:31.889Z,274
2022-11-05T00:05:04.066Z,250
2022-11-05T00:05:35.421Z,260
2022-11-05T00:06:07.877Z,344
2022-11-05T00:06:35.462Z,264
2022-11-05T00:06:55.886Z,268
2022-11-05T00:07:28.556Z,251
2022-11-05T00:07:59.879Z,245
2022-11-05T00:08:32.686Z,10
2022-11-05T00:09:03.873Z,268
2022-11-05T00:09:34.216Z,308
2022-11-05T00:09:52.050Z,312
2022-11-05T00:10:24.770Z,255
2022-11-05T00:10:57.868Z,286
2022-11-05T00:11:27.929Z,228
2022-11-05T00:12:00.536Z,264
2022-11-05T00:12:31.832Z,245
2022-11-05T00:13:04.776Z,249
2022-11-05T00:13:33.911Z,227
2022-11-05T00:13:52.048Z,278
2022-11-05T00:14:23.967Z,258
2022-11-05T00:14:41.116Z,255
2022-11-05T00:15:12.979Z,240
2022-11-05T00:15:33.479Z,244
2022-11-05T00:16:00.129Z,254
2022-11-05T00:16:31.972Z,291
2022-11-05T00:17:03.914Z,279
2022-11-05T00:17:33.531Z,260
2022-11-05T00:17:51.944Z,265
2022-11-05T00:18:24.415Z,241
2022-11-05T00:18:55.825Z,255
2022-11-05T00:19:28.624Z,270
2022-11-05T00:19:59.867Z,248
2022-11-05T00:20:32.899Z,275
2022-11-05T00:21:03.885Z,255
2022-11-05T00:21:34.324Z,282
2022-11-05T00:21:51.884Z,301
2022-11-05T00:22:23.976Z,244
2022-11-05T00:22:41.555Z,232
2022-11-05T00:23:12.203Z,285
2022-11-05T00:23:33.565Z,300
2022-11-05T00:23:59.829Z,201
2022-11-05T00:24:31.945Z,250
2022-11-05T00:25:04.687Z,247
2022-11-05T00:25:33.417Z,210
2022-11-05T00:25:51.945Z,293
2022-11-05T00:26:24.800Z,293
2022-11-05T00:26:56.985Z,291
2022-11-05T00:27:28.588Z,352
2022-11-05T00:27:59.793Z,257
2022-11-05T00:28:32.650Z,278
2022-11-05T00:29:20.245Z,304
2022-11-05T00:29:52.007Z,237
2022-11-05T00:30:24.076Z,243
2022-11-05T00:30:41.945Z,260
2022-11-05T00:31:12.101Z,281
2022-11-05T00:31:33.534Z,304
2022-11-05T00:31:59.996Z,243
2022-11-05T00:32:33.620Z,274
2022-11-05T00:33:04.869Z,256
2022-11-05T00:33:33.543Z,245
2022-11-05T00:33:52.053Z,277
2022-11-05T00:34:23.873Z,267
2022-11-05T00:34:40.932Z,269
2022-11-05T00:35:12.791Z,272
2022-11-05T00:35:33.430Z,272
2022-11-05T00:36:00.110Z,224
2022-11-05T00:36:32.008Z,276
2022-11-05T00:37:03.806Z,282
2022-11-05T00:37:33.621Z,282
2022-11-05T00:37:51.923Z,294
2022-11-05T00:38:24.965Z,247
2022-11-05T00:38:41.405Z,256
2022-11-05T00:39:11.843Z,312
2022-11-05T00:39:33.404Z,259
2022-11-05T00:39:59.881Z,322
2022-11-05T00:40:33.101Z,278
2022-11-05T00:41:03.988Z,306
2022-11-05T00:41:34.456Z,306
2022-11-05T00:41:51.851Z,247
2022-11-05T00:42:23.898Z,232
2022-11-05T00:42:41.842Z,266
2022-11-05T00:43:12.527Z,266
2022-11-05T00:43:33.542Z,266
2022-11-05T00:44:00.207Z,1
2022-11-05T00:44:31.889Z,261
2022-11-05T00:45:05.139Z,274
2022-11-05T00:45:33.438Z,251
2022-11-05T00:45:52.174Z,331
2022-11-05T00:46:24.688Z,293
2022-11-05T00:46:59.815Z,266
2022-11-05T00:47:28.539Z,260
2022-11-05T00:47:59.967Z,260
2022-11-05T00:48:32.736Z,260
2022-11-05T00:49:04.035Z,260
2022-11-05T00:49:34.285Z,260
2022-11-05T00:49:52.153Z,260
2022-11-05T00:50:24.080Z,30
2022-11-05T00:50:41.728Z,22
2022-11-05T00:51:11.967Z,349
2022-11-05T00:51:33.619Z,349
2022-11-05T00:51:59.891Z,349
2022-11-05T00:52:32.073Z,349
2022-11-05T00:53:04.592Z,349
2022-11-05T00:53:33.442Z,349
2022-11-05T00:53:51.889Z,349
2022-11-05T00:54:23.905Z,349
2022-11-05T00:54:41.129Z,348
2022-11-05T00:55:12.922Z,346
2022-11-05T00:55:33.610Z,353
2022-11-05T00:56:00.025Z,7
2022-11-05T00:56:31.881Z,7
2022-11-05T00:57:04.867Z,7
2022-11-05T00:57:33.453Z,6
2022-11-05T00:57:51.871Z,6
2022-11-05T00:58:24.663Z,2
2022-11-05T00:58:55.964Z,350
2022-11-05T00:59:28.520Z,353
2022-11-05T00:59:59.828Z,344
2022-11-05T01:00:32.875Z,341
2022-11-05T01:01:03.901Z,335
2022-11-05T01:01:34.500Z,336
2022-11-05T01:01:52.156Z,336
2022-11-05T01:02:24.041Z,336
2022-11-05T01:02:41.858Z,336
2022-11-05T01:03:12.156Z,336
2022-11-05T01:03:33.680Z,336
2022-11-05T01:04:00.112Z,336
2022-11-05T01:04:31.858Z,336
2022-11-05T01:05:05.030Z,337
2022-11-05T01:05:33.654Z,337
2022-11-05T01:05:52.186Z,337
2022-11-05T01:06:23.978Z,337
2022-11-05T01:06:40.951Z,336
2022-11-05T01:07:12.821Z,331
2022-11-05T01:07:33.493Z,330
2022-11-05T01:08:00.042Z,331
2022-11-05T01:08:31.980Z,31
2022-11-05T01:09:03.861Z,32
2022-11-05T01:09:33.598Z,31
2022-11-05T01:09:51.936Z,20
2022-11-05T01:10:24.979Z,20
2022-11-05T01:10:57.083Z,34
2022-11-05T01:11:28.559Z,34
2022-11-05T01:11:59.850Z,345
2022-11-05T01:12:32.733Z,350
2022-11-05T01:13:07.558Z,34
2022-11-05T01:13:34.294Z,34
2022-11-05T01:13:51.824Z,38
2022-11-05T01:14:23.884Z,40
2022-11-05T01:14:41.788Z,40
2022-11-05T01:15:12.091Z,40
2022-11-05T01:15:33.579Z,40
2022-11-05T01:15:59.953Z,39
2022-11-05T01:16:31.861Z,34
2022-11-05T01:17:04.494Z,34
2022-11-05T01:17:33.452Z,24
2022-11-05T01:17:51.881Z,24
2022-11-05T01:18:24.169Z,24
2022-11-05T01:18:40.950Z,24
2022-11-05T01:19:12.685Z,24
2022-11-05T01:19:33.526Z,25
2022-11-05T01:20:00.033Z,25
2022-11-05T01:20:31.934Z,24
2022-11-05T01:21:03.834Z,24
2022-11-05T01:21:33.580Z,24
2022-11-05T01:21:52.011Z,21
2022-11-05T01:22:24.476Z,21
2022-11-05T01:22:55.800Z,19
2022-11-05T01:23:28.685Z,17
2022-11-05T01:24:00.017Z,348
2022-11-05T01:24:32.545Z,277
2022-11-05T01:25:04.009Z,278
2022-11-05T01:25:34.653Z,277
2022-11-05T01:25:52.155Z,278
2022-11-05T01:26:24.044Z,276
2022-11-05T01:26:41.659Z,277
2022-11-05T01:27:11.794Z,277
2022-11-05T01:27:33.464Z,277
2022-11-05T01:28:32.079Z,272
2022-11-05T01:29:04.607Z,239
2022-11-05T01:29:33.569Z,250
2022-11-05T01:29:51.895Z,271
2022-11-05T01:30:24.173Z,257
2022-11-05T01:30:41.151Z,244
2022-11-05T01:31:13.001Z,238
2022-11-05T01:31:33.587Z,239
2022-11-05T01:31:59.823Z,227
2022-11-05T01:32:31.982Z,250
2022-11-05T01:33:04.271Z,260
2022-11-05T01:33:33.493Z,241
2022-11-05T01:33:51.866Z,241
2022-11-05T01:34:24.962Z,243
2022-11-05T01:34:41.429Z,270
2022-11-05T01:35:12.054Z,244
2022-11-05T01:35:33.635Z,269
2022-11-05T01:36:00.041Z,250
2022-11-05T01:36:34.311Z,252
2022-11-05T01:37:04.026Z,244
2022-11-05T01:37:33.458Z,245
2022-11-05T01:37:51.821Z,233
2022-11-05T01:38:23.895Z,238
2022-11-05T01:38:40.963Z,233
2022-11-05T01:39:12.056Z,234
2022-11-05T01:39:33.618Z,235
2022-11-05T01:40:00.638Z,237
2022-11-05T01:40:31.870Z,281
2022-11-05T01:41:04.896Z,274
2022-11-05T01:41:33.494Z,265
2022-11-05T01:41:51.984Z,262
2022-11-05T01:42:23.872Z,268
2022-11-05T01:42:41.398Z,264
2022-11-05T01:43:12.960Z,266
2022-11-05T01:43:33.436Z,240
2022-11-05T01:43:59.963Z,237
2022-11-05T01:44:31.986Z,270
2022-11-05T01:45:03.995Z,252
2022-11-05T01:45:33.632Z,263
2022-11-05T01:45:52.113Z,261
2022-11-05T01:46:24.455Z,267
2022-11-05T01:46:55.806Z,254
2022-11-05T01:47:28.718Z,262
2022-11-05T01:47:59.993Z,253
2022-11-05T01:48:32.547Z,279
2022-11-05T01:49:03.864Z,272
2022-11-05T01:49:34.857Z,268
2022-11-05T01:50:08.112Z,262
2022-11-05T01:50:33.562Z,262
2022-11-05T01:50:56.149Z,256
2022-11-05T01:51:27.849Z,248
2022-11-05T01:52:00.686Z,246
2022-11-05T01:52:31.972Z,241
2022-11-05T01:53:04.689Z,257
2022-11-05T01:53:33.456Z,247
2022-11-05T01:53:51.880Z,270
2022-11-05T01:54:23.902Z,270
2022-11-05T01:54:41.018Z,270
2022-11-05T01:55:12.723Z,270
2022-11-05T01:55:33.566Z,270
2022-11-05T01:55:59.999Z,260
2022-11-05T01:56:31.844Z,260
2022-11-05T01:57:03.882Z,255
2022-11-05T01:57:33.444Z,265
2022-11-05T01:57:52.032Z,264
2022-11-05T01:58:24.611Z,263
2022-11-05T01:58:41.632Z,263
2022-11-05T01:59:11.866Z,263
2022-11-05T01:59:33.428Z,264
2022-11-05T02:00:00.064Z,264
2022-11-05T02:00:32.821Z,264
2022-11-05T02:01:03.832Z,267
2022-11-05T02:01:34.634Z,232
2022-11-05T02:01:52.076Z,256
2022-11-05T02:02:24.274Z,266
2022-11-05T02:02:41.824Z,266
2022-11-05T02:03:12.000Z,266
2022-11-05T02:03:33.467Z,266
2022-11-05T02:03:59.935Z,212
2022-11-05T02:04:32.094Z,266
2022-11-05T02:05:04.631Z,274
2022-11-05T02:05:33.432Z,275
2022-11-05T02:06:08.755Z,246
2022-11-05T02:06:33.581Z,254
2022-11-05T02:06:55.955Z,233
2022-11-05T02:07:28.167Z,265
2022-11-05T02:07:59.909Z,272
2022-11-05T02:08:31.901Z,267
2022-11-05T02:09:04.065Z,250
2022-11-05T02:09:34.057Z,240
2022-11-05T02:09:51.876Z,272
2022-11-05T02:10:24.850Z,273
2022-11-05T02:10:56.006Z,258
2022-11-05T02:11:34.388Z,265
2022-11-05T02:11:59.823Z,276
2022-11-05T02:12:31.977Z,264
2022-11-05T02:13:03.896Z,278
2022-11-05T02:13:33.697Z,235
2022-11-05T02:13:52.608Z,270
2022-11-05T02:14:23.846Z,265
2022-11-05T02:14:40.977Z,264
2022-11-05T02:15:12.101Z,271
2022-11-05T02:15:33.738Z,270
2022-11-05T02:16:00.519Z,270
2022-11-05T02:16:31.846Z,265
2022-11-05T02:17:05.048Z,257
2022-11-05T02:17:33.662Z,269
2022-11-05T02:17:51.992Z,263
2022-11-05T02:18:23.980Z,225
2022-11-05T02:18:40.954Z,272
2022-11-05T02:19:12.644Z,277
2022-11-05T02:19:33.453Z,274
2022-11-05T02:20:00.047Z,228
2022-11-05T02:20:32.280Z,229
2022-11-05T02:21:03.832Z,268
2022-11-05T02:21:33.997Z,267
2022-11-05T02:21:51.893Z,269
2022-11-05T02:22:24.560Z,269
2022-11-05T02:22:55.843Z,275
2022-11-05T02:23:28.712Z,275
2022-11-05T02:23:59.981Z,266
2022-11-05T02:24:32.586Z,240
2022-11-05T02:25:04.137Z,235
2022-11-05T02:25:34.304Z,234
2022-11-05T02:25:51.999Z,271
2022-11-05T02:26:23.927Z,235
2022-11-05T02:26:41.777Z,236
2022-11-05T02:27:12.074Z,264
2022-11-05T02:27:33.597Z,264
2022-11-05T02:27:59.795Z,234
2022-11-05T02:28:31.967Z,273
2022-11-05T02:29:04.498Z,286
2022-11-05T02:29:33.447Z,265
2022-11-05T02:29:51.806Z,279
2022-11-05T02:30:24.235Z,300
2022-11-05T02:30:41.121Z,301
2022-11-05T02:31:12.757Z,301
2022-11-05T02:31:33.953Z,268
2022-11-05T02:31:59.913Z,214
2022-11-05T02:32:31.961Z,282
2022-11-05T02:33:03.991Z,300
2022-11-05T02:33:33.654Z,262
2022-11-05T02:33:51.863Z,240
2022-11-05T02:34:24.766Z,213
2022-11-05T02:34:41.568Z,220
2022-11-05T02:35:12.117Z,227
2022-11-05T02:35:33.798Z,241
2022-11-05T02:35:59.970Z,236
2022-11-05T02:36:34.274Z,242
2022-11-05T02:37:03.935Z,255
2022-11-05T02:37:33.602Z,260
2022-11-05T02:37:51.855Z,267
2022-11-05T02:38:23.852Z,255
2022-11-05T02:38:41.015Z,230
2022-11-05T02:39:11.948Z,219
2022-11-05T02:39:33.664Z,254
2022-11-05T02:40:00.759Z,221
2022-11-05T02:40:31.825Z,205
2022-11-05T02:41:04.742Z,274
2022-11-05T02:41:33.618Z,197
2022-11-05T02:41:52.176Z,274
2022-11-05T02:42:23.871Z,295
2022-11-05T02:42:41.006Z,296
2022-11-05T02:43:12.995Z,260
2022-11-05T02:43:33.490Z,237
2022-11-05T02:43:59.978Z,235
2022-11-05T02:44:31.843Z,269
2022-11-05T02:45:04.009Z,238
2022-11-05T02:45:33.664Z,264
2022-11-05T02:45:52.172Z,280
2022-11-05T02:46:24.826Z,298
2022-11-05T02:46:41.545Z,260
2022-11-05T02:47:16.960Z,246
2022-11-05T02:47:34.012Z,263
2022-11-05T02:48:00.034Z,275
2022-11-05T02:48:34.451Z,287
2022-11-05T02:49:03.875Z,245
2022-11-05T02:49:33.619Z,258
2022-11-05T02:49:51.956Z,218
2022-11-05T02:50:24.165Z,218
2022-11-05T02:50:41.152Z,218
2022-11-05T02:51:11.808Z,218
2022-11-05T02:51:33.455Z,310
2022-11-05T02:52:16.594Z,279
2022-11-05T02:52:33.647Z,277
2022-11-05T02:53:03.819Z,252
2022-11-05T02:53:33.527Z,243
2022-11-05T02:53:51.887Z,275
2022-11-05T02:54:24.501Z,287
2022-11-05T02:54:56.001Z,236
2022-11-05T02:55:28.835Z,287
2022-11-05T02:55:59.865Z,287
2022-11-05T02:56:32.736Z,260
2022-11-05T02:57:04.040Z,247
2022-11-05T02:57:34.292Z,262
2022-11-05T02:57:51.894Z,262
2022-11-05T02:58:23.879Z,284
2022-11-05T02:58:41.819Z,279
2022-11-05T02:59:12.041Z,291
2022-11-05T02:59:34.092Z,291
2022-11-05T02:59:59.852Z,269
2022-11-05T03:00:31.968Z,287
2022-11-05T03:01:04.950Z,267
2022-11-05T03:01:33.556Z,271
2022-11-05T03:01:52.095Z,252
2022-11-05T03:02:23.963Z,270
2022-11-05T03:02:41.137Z,280
2022-11-05T03:03:12.927Z,272
2022-11-05T03:03:34.023Z,280
2022-11-05T03:04:00.076Z,281
2022-11-05T03:04:31.863Z,280
2022-11-05T03:05:04.049Z,282
2022-11-05T03:05:33.618Z,306
2022-11-05T03:05:52.162Z,287
2022-11-05T03:06:23.852Z,248
2022-11-05T03:06:40.955Z,269
2022-11-05T03:07:12.757Z,272
2022-11-05T03:07:33.449Z,259
2022-11-05T03:08:00.031Z,226
2022-11-05T03:08:31.972Z,285
2022-11-05T03:09:20.612Z,277
2022-11-05T03:09:52.048Z,316
2022-11-05T03:10:24.683Z,248
2022-11-05T03:10:55.844Z,240
2022-11-05T03:11:28.635Z,243
2022-11-05T03:12:00.035Z,271
2022-11-05T03:12:32.557Z,270
2022-11-05T03:13:03.981Z,233
2022-11-05T03:13:34.291Z,242
2022-11-05T03:13:51.884Z,228
2022-11-05T03:14:24.013Z,263
2022-11-05T03:14:41.691Z,247
2022-11-05T03:15:12.094Z,251
2022-11-05T03:15:33.567Z,242
2022-11-05T03:15:59.988Z,258
2022-11-05T03:16:31.996Z,251
2022-11-05T03:17:04.595Z,267
2022-11-05T03:17:33.474Z,279
2022-11-05T03:17:51.846Z,255
2022-11-05T03:18:24.002Z,242
2022-11-05T03:18:41.138Z,270
2022-11-05T03:19:12.560Z,255
2022-11-05T03:19:33.787Z,265
2022-11-05T03:19:59.825Z,287
2022-11-05T03:20:32.081Z,271
2022-11-05T03:21:03.912Z,268
2022-11-05T03:21:33.428Z,274
2022-11-05T03:21:51.889Z,275
2022-11-05T03:22:24.672Z,257
2022-11-05T03:22:55.977Z,258
2022-11-05T03:23:28.511Z,272
2022-11-05T03:23:59.797Z,268
2022-11-05T03:24:32.751Z,251
2022-11-05T03:25:03.976Z,283
2022-11-05T03:25:35.279Z,284
2022-11-05T03:25:51.891Z,285
2022-11-05T03:26:23.894Z,287
2022-11-05T03:26:41.768Z,287
2022-11-05T03:27:11.922Z,283
2022-11-05T03:27:33.707Z,284
2022-11-05T03:27:59.992Z,243
2022-11-05T03:28:31.872Z,248
2022-11-05T03:29:04.702Z,291
2022-11-05T03:29:33.683Z,291
2022-11-05T03:29:52.104Z,290
2022-11-05T03:30:24.161Z,286
2022-11-05T03:30:41.381Z,254
2022-11-05T03:31:12.753Z,252
2022-11-05T03:31:33.436Z,251
2022-11-05T03:31:59.965Z,251
2022-11-05T03:32:32.004Z,251
2022-11-05T03:33:03.859Z,252
2022-11-05T03:33:33.679Z,252
2022-11-05T03:33:51.904Z,252
2022-11-05T03:34:24.598Z,253
2022-11-05T03:34:41.463Z,269
2022-11-05T03:35:11.942Z,272
2022-11-05T03:35:34.113Z,277
2022-11-05T03:36:00.272Z,277
2022-11-05T03:36:32.670Z,255
2022-11-05T03:37:03.815Z,286
2022-11-05T03:37:34.396Z,278
2022-11-05T03:37:51.821Z,274
2022-11-05T03:38:23.994Z,277
2022-11-05T03:38:41.982Z,276
2022-11-05T03:39:11.951Z,277
2022-11-05T03:39:33.691Z,277
2022-11-05T03:39:59.853Z,277
2022-11-05T03:40:32.087Z,277
2022-11-05T03:41:04.934Z,259
2022-11-05T03:41:34.105Z,252
2022-11-05T03:41:51.906Z,254
2022-11-05T03:42:23.831Z,251
2022-11-05T03:42:41.046Z,254
2022-11-05T03:43:13.220Z,272
2022-11-05T03:43:33.686Z,272
2022-11-05T03:43:59.838Z,293
2022-11-05T03:44:31.868Z,290
2022-11-05T03:45:04.114Z,290
2022-11-05T03:45:33.480Z,262
2022-11-05T03:45:52.108Z,274
2022-11-05T03:46:24.650Z,274
2022-11-05T03:46:55.925Z,274
2022-11-05T03:47:28.609Z,260
2022-11-05T03:48:00.014Z,261
2022-11-05T03:48:32.764Z,279
2022-11-05T03:49:03.952Z,279
2022-11-05T03:49:34.364Z,279
2022-11-05T03:50:08.092Z,288
2022-11-05T03:50:38.480Z,261
2022-11-05T03:50:55.950Z,265
2022-11-05T03:51:27.957Z,270
2022-11-05T03:52:00.546Z,279
2022-11-05T03:52:33.443Z,257
2022-11-05T03:53:04.694Z,270
2022-11-05T03:53:33.633Z,261
2022-11-05T03:53:52.005Z,261
2022-11-05T03:54:24.023Z,266
2022-11-05T03:54:41.179Z,267
2022-11-05T03:55:12.768Z,267
2022-11-05T03:55:33.457Z,269
2022-11-05T03:56:00.051Z,274
2022-11-05T03:56:32.011Z,274
2022-11-05T03:57:03.866Z,262
2022-11-05T03:57:33.521Z,253
2022-11-05T03:57:51.910Z,240
2022-11-05T03:58:24.565Z,270
2022-11-05T03:58:58.852Z,238
2022-11-05T03:59:28.731Z,238
2022-11-05T03:59:59.890Z,238
2022-11-05T04:00:33.059Z,238
2022-11-05T04:01:03.925Z,239
2022-11-05T04:01:34.563Z,239
2022-11-05T04:01:52.008Z,239
2022-11-05T04:02:24.251Z,239
2022-11-05T04:02:41.786Z,240
2022-11-05T04:03:12.440Z,260
2022-11-05T04:03:33.636Z,261
2022-11-05T04:03:59.847Z,245
2022-11-05T04:04:31.925Z,258
2022-11-05T04:05:04.693Z,243
2022-11-05T04:05:33.536Z,270
2022-11-05T04:05:51.978Z,255
2022-11-05T04:06:23.890Z,254
2022-11-05T04:06:41.063Z,262
2022-11-05T04:07:12.668Z,249
2022-11-05T04:07:33.643Z,249
2022-11-05T04:07:59.835Z,250
2022-11-05T04:08:31.920Z,250
2022-11-05T04:09:03.867Z,265
2022-11-05T04:09:33.440Z,265
2022-11-05T04:09:51.881Z,265
2022-11-05T04:10:24.996Z,254
2022-11-05T04:10:41.374Z,254
2022-11-05T04:11:11.873Z,262
2022-11-05T04:11:33.629Z,262
2022-11-05T04:11:59.842Z,263
2022-11-05T04:12:32.828Z,261
2022-11-05T04:13:03.996Z,261
2022-11-05T04:13:35.356Z,261
2022-11-05T04:13:51.745Z,260
2022-11-05T04:14:23.973Z,262
2022-11-05T04:14:41.817Z,265
2022-11-05T04:15:12.236Z,266
2022-11-05T04:15:33.588Z,266
2022-11-05T04:15:59.991Z,251
2022-11-05T04:16:31.916Z,266
2022-11-05T04:17:04.666Z,275
2022-11-05T04:17:33.458Z,278
2022-11-05T04:18:08.837Z,272
2022-11-05T04:18:33.516Z,279
2022-11-05T04:18:56.003Z,274
2022-11-05T04:19:27.970Z,262
2022-11-05T04:20:16.869Z,267
2022-11-05T04:20:33.915Z,268
2022-11-05T04:21:04.025Z,274
2022-11-05T04:21:34.053Z,274
2022-11-05T04:21:51.883Z,278
2022-11-05T04:22:24.755Z,277
2022-11-05T04:22:41.624Z,278
2022-11-05T04:23:12.372Z,277
2022-11-05T04:23:33.654Z,277
2022-11-05T04:23:59.883Z,277
2022-11-05T04:24:32.719Z,258
2022-11-05T04:25:04.361Z,310
2022-11-05T04:25:34.566Z,303
2022-11-05T04:25:52.162Z,258
2022-11-05T04:26:23.853Z,285
2022-11-05T04:26:41.731Z,285
2022-11-05T04:27:11.851Z,251
2022-11-05T04:27:33.487Z,268
2022-11-05T04:28:00.044Z,271
2022-11-05T04:28:31.869Z,255
2022-11-05T04:29:07.896Z,269
2022-11-05T04:29:33.758Z,256
2022-11-05T04:29:52.039Z,271
2022-11-05T04:30:24.787Z,271
2022-11-05T04:30:41.638Z,271
2022-11-05T04:31:11.841Z,239
2022-11-05T04:31:33.455Z,268
2022-11-05T04:31:59.988Z,269
2022-11-05T04:32:32.612Z,276
2022-11-05T04:33:03.917Z,276
2022-11-05T04:33:34.313Z,276
2022-11-05T04:33:51.908Z,276
2022-11-05T04:34:24.029Z,260
2022-11-05T04:34:41.842Z,263
2022-11-05T04:35:12.207Z,266
2022-11-05T04:35:33.724Z,269
2022-11-05T04:35:59.989Z,277
2022-11-05T04:36:32.041Z,279
2022-11-05T04:37:04.579Z,256
2022-11-05T04:37:33.555Z,256
2022-11-05T04:37:51.913Z,270
2022-11-05T04:38:23.935Z,271
2022-11-05T04:38:41.096Z,271
2022-11-05T04:39:12.696Z,272
2022-11-05T04:39:33.633Z,272
2022-11-05T04:39:59.818Z,272
2022-11-05T04:40:32.022Z,272
2022-11-05T04:41:03.954Z,272
2022-11-05T04:41:33.447Z,272
2022-11-05T04:41:51.922Z,255
2022-11-05T04:42:24.625Z,267
2022-11-05T04:42:55.977Z,272
2022-11-05T04:43:28.586Z,272
2022-11-05T04:44:15.860Z,272
2022-11-05T04:44:34.012Z,272
2022-11-05T04:45:04.075Z,273
2022-11-05T04:45:34.264Z,273
2022-11-05T04:45:52.193Z,273
2022-11-05T04:46:23.928Z,278
2022-11-05T04:46:41.711Z,230
2022-11-05T04:47:11.895Z,231
2022-11-05T04:47:33.451Z,231
2022-11-05T04:48:00.088Z,231
2022-11-05T04:48:31.876Z,231
2022-11-05T04:49:04.841Z,252
2022-11-05T04:49:33.712Z,252
2022-11-05T04:49:52.290Z,253
2022-11-05T04:50:24.146Z,253
2022-11-05T04:50:41.129Z,253
2022-11-05T04:51:12.823Z,253
2022-11-05T04:51:33.453Z,253
2022-11-05T04:52:00.039Z,254
2022-11-05T04:52:32.056Z,254
2022-11-05T04:53:03.864Z,254
2022-11-05T04:53:33.567Z,263
2022-11-05T04:53:51.936Z,262
2022-11-05T04:54:24.467Z,265
2022-11-05T04:54:56.050Z,272
2022-11-05T04:55:28.923Z,241
2022-11-05T04:55:59.948Z,270
2022-11-05T04:56:32.587Z,267
2022-11-05T04:57:03.859Z,271
2022-11-05T04:57:34.498Z,271
2022-11-05T04:57:51.871Z,272
2022-11-05T04:58:24.075Z,278
2022-11-05T04:58:41.599Z,278
2022-11-05T04:59:12.054Z,244
2022-11-05T04:59:33.586Z,262
2022-11-05T04:59:59.862Z,271
2022-11-05T05:00:32.242Z,271
2022-11-05T05:01:04.653Z,271
2022-11-05T05:01:33.595Z,271
2022-11-05T05:01:51.934Z,271
2022-11-05T05:02:23.946Z,246
2022-11-05T05:02:41.001Z,251
2022-11-05T05:03:12.836Z,251
2022-11-05T05:03:33.630Z,252
2022-11-05T05:03:59.847Z,252
2022-11-05T05:04:32.133Z,253
2022-11-05T05:05:04.032Z,265
2022-11-05T05:05:33.460Z,265
2022-11-05T05:05:53.902Z,249
2022-11-05T05:06:24.544Z,266
2022-11-05T05:06:41.594Z,266
2022-11-05T05:07:11.928Z,266
2022-11-05T05:07:33.531Z,266
2022-11-05T05:07:59.967Z,269
2022-11-05T05:08:32.658Z,269
2022-11-05T05:09:03.878Z,247
2022-11-05T05:09:34.668Z,248
2022-11-05T05:09:51.995Z,254
2022-11-05T05:10:24.150Z,253
2022-11-05T05:10:41.760Z,256
2022-11-05T05:11:11.891Z,270
2022-11-05T05:11:33.715Z,270
2022-11-05T05:11:59.963Z,270
2022-11-05T05:12:32.067Z,270
2022-11-05T05:13:04.627Z,270
2022-11-05T05:13:33.542Z,270
2022-11-05T05:13:51.908Z,270
2022-11-05T05:14:24.111Z,270
2022-11-05T05:14:41.171Z,270
2022-11-05T05:15:12.820Z,270
2022-11-05T05:15:33.508Z,270
2022-11-05T05:15:59.965Z,249
2022-11-05T05:16:32.058Z,247
2022-11-05T05:17:03.973Z,255
2022-11-05T05:17:34.455Z,255
2022-11-05T05:17:51.932Z,256
2022-11-05T05:18:24.074Z,256
2022-11-05T05:18:46.026Z,256
2022-11-05T05:19:12.060Z,256
2022-11-05T05:19:33.889Z,256
2022-11-05T05:19:59.856Z,256
2022-11-05T05:20:32.050Z,256
2022-11-05T05:21:04.941Z,256
2022-11-05T05:21:33.478Z,256
2022-11-05T05:21:51.829Z,261
2022-11-05T05:22:23.868Z,254
2022-11-05T05:22:41.031Z,260
2022-11-05T05:23:13.393Z,257
2022-11-05T05:23:33.673Z,272
2022-11-05T05:23:59.827Z,255
2022-11-05T05:24:31.921Z,266
2022-11-05T05:25:04.110Z,266
2022-11-05T05:25:33.471Z,266
2022-11-05T05:25:52.174Z,266
2022-11-05T05:26:24.664Z,266
2022-11-05T05:26:41.679Z,240
2022-11-05T05:27:12.046Z,254
2022-11-05T05:27:33.510Z,257
2022-11-05T05:28:00.029Z,264
2022-11-05T05:28:32.743Z,269
2022-11-05T05:29:03.861Z,269
2022-11-05T05:29:35.341Z,269
2022-11-05T05:29:51.976Z,269
2022-11-05T05:30:24.165Z,269
2022-11-05T05:30:41.730Z,269
2022-11-05T05:31:11.844Z,266
2022-11-05T05:31:33.513Z,267
2022-11-05T05:31:59.972Z,269
2022-11-05T05:32:33.063Z,269
2022-11-05T05:33:04.795Z,246
2022-11-05T05:33:33.694Z,246
2022-11-05T05:33:51.998Z,246
2022-11-05T05:34:24.016Z,264
2022-11-05T05:34:41.141Z,264
2022-11-05T05:35:12.896Z,264
2022-11-05T05:35:33.468Z,264
2022-11-05T05:36:00.126Z,264
2022-11-05T05:36:32.026Z,264
2022-11-05T05:37:04.071Z,266
2022-11-05T05:37:33.863Z,266
2022-11-05T05:37:51.868Z,266
2022-11-05T05:38:24.695Z,266
2022-11-05T05:38:41.478Z,266
2022-11-05T05:39:12.087Z,263
2022-11-05T05:39:33.635Z,263
2022-11-05T05:39:59.851Z,263
2022-11-05T05:40:32.947Z,250
2022-11-05T05:41:04.085Z,256
2022-11-05T05:41:34.709Z,257
2022-11-05T05:41:51.936Z,252
2022-11-05T05:42:23.977Z,254
2022-11-05T05:42:43.385Z,254
2022-11-05T05:43:28.092Z,261
2022-11-05T05:44:00.330Z,261
2022-11-05T05:44:31.909Z,263
2022-11-05T05:45:04.142Z,265
2022-11-05T05:45:33.469Z,265
2022-11-05T05:45:53.097Z,265
2022-11-05T05:46:23.890Z,265
2022-11-05T05:46:41.030Z,265
2022-11-05T05:47:11.992Z,265
2022-11-05T05:47:33.647Z,265
2022-11-05T05:48:00.720Z,265
2022-11-05T05:48:32.038Z,265
2022-11-05T05:49:11.111Z,265
2022-11-05T05:49:33.467Z,265
2022-11-05T05:49:51.887Z,265
2022-11-05T05:50:24.059Z,265
2022-11-05T05:50:41.053Z,265
2022-11-05T05:51:12.627Z,265
2022-11-05T05:51:33.696Z,265
2022-11-05T05:51:59.874Z,265
2022-11-05T05:52:31.874Z,265
2022-11-05T05:53:04.031Z,265
2022-11-05T05:53:33.483Z,265
2022-11-05T05:53:51.967Z,265
2022-11-05T05:54:30.749Z,265
2022-11-05T05:54:55.924Z,265
2022-11-05T05:55:29.055Z,265
2022-11-05T05:55:59.980Z,265
2022-11-05T05:56:32.760Z,265
2022-11-05T05:57:03.914Z,265
2022-11-05T05:57:34.193Z,265
2022-11-05T05:57:52.073Z,265
2022-11-05T05:58:23.895Z,265
2022-11-05T05:58:41.880Z,265
2022-11-05T05:59:12.035Z,265
2022-11-05T05:59:33.477Z,265
2022-11-05T06:00:00.074Z,265
2022-11-05T06:00:32.099Z,256
2022-11-05T06:01:04.890Z,265
2022-11-05T06:01:34.121Z,265
2022-11-05T06:01:52.305Z,236
2022-11-05T06:02:24.117Z,236
2022-11-05T06:02:41.204Z,255
2022-11-05T06:03:13.176Z,262
2022-11-05T06:03:33.498Z,264
2022-11-05T06:04:00.045Z,264
2022-11-05T06:04:32.005Z,264
2022-11-05T06:05:04.033Z,239
2022-11-05T06:05:33.662Z,241
2022-11-05T06:05:52.142Z,243
2022-11-05T06:06:24.050Z,272
2022-11-05T06:06:41.202Z,272
2022-11-05T06:07:12.642Z,272
2022-11-05T06:07:37.188Z,272
2022-11-05T06:08:00.050Z,296
2022-11-05T06:08:32.098Z,285
2022-11-05T06:09:04.100Z,293
2022-11-05T06:09:33.481Z,291
2022-11-05T06:09:51.903Z,292
2022-11-05T06:10:25.097Z,292
2022-11-05T06:10:57.202Z,296
2022-11-05T06:11:28.793Z,296
2022-11-05T06:11:59.885Z,291
2022-11-05T06:12:32.963Z,254
2022-11-05T06:13:04.124Z,269
2022-11-05T06:13:34.574Z,275
2022-11-05T06:13:51.952Z,275
2022-11-05T06:14:23.984Z,275
2022-11-05T06:14:41.902Z,275
2022-11-05T06:15:12.159Z,275
2022-11-05T06:15:36.008Z,275
2022-11-05T06:16:00.148Z,273
2022-11-05T06:16:31.916Z,258
2022-11-05T06:17:05.168Z,258
2022-11-05T06:17:33.485Z,258
2022-11-05T06:17:51.877Z,254
2022-11-05T06:18:23.969Z,266
2022-11-05T06:18:40.997Z,265
2022-11-05T06:19:12.913Z,266
2022-11-05T06:19:33.678Z,265
2022-11-05T06:19:59.893Z,265
2022-11-05T06:20:32.179Z,266